sensor_id;sensor_type;location;lat;lon;timestamp;temperature;humidity
19435;DHT22;9853;50.848;4.108;2024-03-08T00:00:50;6.20;99.90
19435;DHT22;9853;50.848;4.108;2024-03-08T00:02:52;6.20;99.90
19435;DHT22;9853;50.848;4.108;2024-03-08T00:04:52;6.00;99.90
19435;DHT22;9853;50.848;4.108;2024-03-08T00:06:53;6.00;99.90
19435;DHT22;9853;50.848;4.108;2024-03-08T00:08:54;6.10;99.90
19435;DHT22;9853;50.848;4.108;2024-03-08T00:10:56;6.00;99.90
19435;DHT22;9853;50.848;4.108;2024-03-08T00:12:57;6.00;99.90
19435;DHT22;9853;50.848;4.108;2024-03-08T00:14:58;5.80;99.90
19435;DHT22;9853;50.848;4.108;2024-03-08T00:16:59;5.70;99.90
19435;DHT22;9853;50.848;4.108;2024-03-08T00:19:00;5.70;99.90
19435;DHT22;9853;50.848;4.108;2024-03-08T00:21:02;5.90;99.90
19435;DHT22;9853;50.848;4.108;2024-03-08T00:23:03;5.90;99.90
19435;DHT22;9853;50.848;4.108;2024-03-08T00:25:05;5.60;99.90
19435;DHT22;9853;50.848;4.108;2024-03-08T00:27:09;5.80;99.90
19435;DHT22;9853;50.848;4.108;2024-03-08T00:29:11;5.70;99.90
19435;DHT22;9853;50.848;4.108;2024-03-08T00:31:16;5.70;99.90
19435;DHT22;9853;50.848;4.108;2024-03-08T00:33:17;5.60;99.90
19435;DHT22;9853;50.848;4.108;2024-03-08T00:35:18;5.50;99.90
19435;DHT22;9853;50.848;4.108;2024-03-08T00:37:19;5.30;99.90
19435;DHT22;9853;50.848;4.108;2024-03-08T00:39:20;5.40;99.90
19435;DHT22;9853;50.848;4.108;2024-03-08T00:41:21;5.30;99.90
19435;DHT22;9853;50.848;4.108;2024-03-08T00:43:22;5.20;99.90
19435;DHT22;9853;50.848;4.108;2024-03-08T00:45:26;5.20;99.90
19435;DHT22;9853;50.848;4.108;2024-03-08T00:47:27;5.20;99.90
19435;DHT22;9853;50.848;4.108;2024-03-08T00:49:28;5.40;99.90
19435;DHT22;9853;50.848;4.108;2024-03-08T00:51:29;5.30;99.90
19435;DHT22;9853;50.848;4.108;2024-03-08T00:53:30;5.30;99.90
19435;DHT22;9853;50.848;4.108;2024-03-08T00:55:31;5.20;99.90
19435;DHT22;9853;50.848;4.108;2024-03-08T00:57:32;5.20;99.90
19435;DHT22;9853;50.848;4.108;2024-03-08T00:59:33;5.20;99.90
19435;DHT22;9853;50.848;4.108;2024-03-08T01:01:34;5.30;99.90
19435;DHT22;9853;50.848;4.108;2024-03-08T01:03:36;5.10;99.90
19435;DHT22;9853;50.848;4.108;2024-03-08T01:05:37;5.00;99.90
19435;DHT22;9853;50.848;4.108;2024-03-08T01:07:37;5.00;99.90
19435;DHT22;9853;50.848;4.108;2024-03-08T01:09:38;5.10;99.90
19435;DHT22;9853;50.848;4.108;2024-03-08T01:11:39;5.00;99.90
19435;DHT22;9853;50.848;4.108;2024-03-08T01:13:40;5.00;99.90
19435;DHT22;9853;50.848;4.108;2024-03-08T01:15:41;4.90;99.90
19435;DHT22;9853;50.848;4.108;2024-03-08T01:17:42;4.80;99.90
19435;DHT22;9853;50.848;4.108;2024-03-08T01:19:44;4.80;99.90
19435;DHT22;9853;50.848;4.108;2024-03-08T01:21:45;4.70;99.90
19435;DHT22;9853;50.848;4.108;2024-03-08T01:23:47;4.80;99.90
19435;DHT22;9853;50.848;4.108;2024-03-08T01:25:47;4.80;99.90
19435;DHT22;9853;50.848;4.108;2024-03-08T01:27:52;4.80;99.90
19435;DHT22;9853;50.848;4.108;2024-03-08T01:29:55;4.80;99.90
19435;DHT22;9853;50.848;4.108;2024-03-08T01:31:56;4.80;99.90
19435;DHT22;9853;50.848;4.108;2024-03-08T01:33:57;4.70;99.90
19435;DHT22;9853;50.848;4.108;2024-03-08T01:35:58;4.70;99.90
19435;DHT22;9853;50.848;4.108;2024-03-08T01:37:59;4.70;99.90
19435;DHT22;9853;50.848;4.108;2024-03-08T01:40:00;4.70;99.90
19435;DHT22;9853;50.848;4.108;2024-03-08T01:42:01;4.70;99.90
19435;DHT22;9853;50.848;4.108;2024-03-08T01:44:03;4.70;99.90
19435;DHT22;9853;50.848;4.108;2024-03-08T01:46:05;4.70;99.90
19435;DHT22;9853;50.848;4.108;2024-03-08T01:48:06;4.60;99.90
19435;DHT22;9853;50.848;4.108;2024-03-08T01:50:07;4.60;99.90
19435;DHT22;9853;50.848;4.108;2024-03-08T01:52:08;4.50;99.90
19435;DHT22;9853;50.848;4.108;2024-03-08T01:54:10;4.50;99.90
19435;DHT22;9853;50.848;4.108;2024-03-08T01:56:11;4.50;99.90
19435;DHT22;9853;50.848;4.108;2024-03-08T01:58:15;4.40;99.90
19435;DHT22;9853;50.848;4.108;2024-03-08T02:00:16;4.50;99.90
19435;DHT22;9853;50.848;4.108;2024-03-08T02:02:18;4.50;99.90
19435;DHT22;9853;50.848;4.108;2024-03-08T02:04:20;4.50;99.90
19435;DHT22;9853;50.848;4.108;2024-03-08T02:06:21;4.40;99.90
19435;DHT22;9853;50.848;4.108;2024-03-08T02:08:22;4.50;99.90
19435;DHT22;9853;50.848;4.108;2024-03-08T02:10:23;4.50;99.90
19435;DHT22;9853;50.848;4.108;2024-03-08T02:12:24;4.50;99.90
19435;DHT22;9853;50.848;4.108;2024-03-08T02:14:25;4.60;99.90
19435;DHT22;9853;50.848;4.108;2024-03-08T02:16:26;4.70;99.90
19435;DHT22;9853;50.848;4.108;2024-03-08T02:18:30;4.60;99.90
19435;DHT22;9853;50.848;4.108;2024-03-08T02:20:31;4.50;99.90
19435;DHT22;9853;50.848;4.108;2024-03-08T02:22:32;4.60;99.90
19435;DHT22;9853;50.848;4.108;2024-03-08T02:24:33;4.60;99.90
19435;DHT22;9853;50.848;4.108;2024-03-08T02:26:34;4.50;99.90
19435;DHT22;9853;50.848;4.108;2024-03-08T02:28:35;4.50;99.90
19435;DHT22;9853;50.848;4.108;2024-03-08T02:30:36;4.50;99.90
19435;DHT22;9853;50.848;4.108;2024-03-08T02:32:37;4.50;99.90
19435;DHT22;9853;50.848;4.108;2024-03-08T02:34:39;4.40;99.90
19435;DHT22;9853;50.848;4.108;2024-03-08T02:36:40;4.40;99.90
19435;DHT22;9853;50.848;4.108;2024-03-08T02:38:42;4.40;99.90
19435;DHT22;9853;50.848;4.108;2024-03-08T02:40:44;4.60;99.90
19435;DHT22;9853;50.848;4.108;2024-03-08T02:42:44;4.50;99.90
19435;DHT22;9853;50.848;4.108;2024-03-08T02:44:46;4.50;99.90
19435;DHT22;9853;50.848;4.108;2024-03-08T02:46:47;4.30;99.90
19435;DHT22;9853;50.848;4.108;2024-03-08T02:48:48;4.40;99.90
19435;DHT22;9853;50.848;4.108;2024-03-08T02:50:49;4.30;99.90
19435;DHT22;9853;50.848;4.108;2024-03-08T02:52:51;4.40;99.90
19435;DHT22;9853;50.848;4.108;2024-03-08T02:54:53;4.30;99.90
19435;DHT22;9853;50.848;4.108;2024-03-08T02:56:54;4.30;99.90
19435;DHT22;9853;50.848;4.108;2024-03-08T02:58:54;4.20;99.90
19435;DHT22;9853;50.848;4.108;2024-03-08T03:00:55;4.30;99.90
19435;DHT22;9853;50.848;4.108;2024-03-08T03:02:57;4.30;99.90
19435;DHT22;9853;50.848;4.108;2024-03-08T03:04:58;4.30;99.90
19435;DHT22;9853;50.848;4.108;2024-03-08T03:07:03;4.30;99.90
19435;DHT22;9853;50.848;4.108;2024-03-08T03:09:05;4.20;99.90
19435;DHT22;9853;50.848;4.108;2024-03-08T03:11:06;4.20;99.90
19435;DHT22;9853;50.848;4.108;2024-03-08T03:13:08;4.20;99.90
19435;DHT22;9853;50.848;4.108;2024-03-08T03:15:10;4.20;99.90
19435;DHT22;9853;50.848;4.108;2024-03-08T03:17:11;4.30;99.90
19435;DHT22;9853;50.848;4.108;2024-03-08T03:19:12;4.40;99.90
19435;DHT22;9853;50.848;4.108;2024-03-08T03:21:13;4.20;99.90
19435;DHT22;9853;50.848;4.108;2024-03-08T03:23:15;4.10;99.90
19435;DHT22;9853;50.848;4.108;2024-03-08T03:25:21;4.00;99.90
19435;DHT22;9853;50.848;4.108;2024-03-08T03:27:29;4.10;99.90
19435;DHT22;9853;50.848;4.108;2024-03-08T03:29:31;4.20;99.90
19435;DHT22;9853;50.848;4.108;2024-03-08T03:31:33;4.20;99.90
19435;DHT22;9853;50.848;4.108;2024-03-08T03:33:35;4.00;99.90
19435;DHT22;9853;50.848;4.108;2024-03-08T03:35:37;4.00;99.90
19435;DHT22;9853;50.848;4.108;2024-03-08T03:37:38;4.00;99.90
19435;DHT22;9853;50.848;4.108;2024-03-08T03:39:41;4.10;99.90
19435;DHT22;9853;50.848;4.108;2024-03-08T03:41:53;4.00;99.90
19435;DHT22;9853;50.848;4.108;2024-03-08T03:43:54;4.00;99.90
19435;DHT22;9853;50.848;4.108;2024-03-08T03:45:55;4.00;99.90
19435;DHT22;9853;50.848;4.108;2024-03-08T03:47:56;3.90;99.90
19435;DHT22;9853;50.848;4.108;2024-03-08T03:49:57;4.00;99.90
19435;DHT22;9853;50.848;4.108;2024-03-08T03:52:05;4.00;99.90
19435;DHT22;9853;50.848;4.108;2024-03-08T03:54:06;4.00;99.90
19435;DHT22;9853;50.848;4.108;2024-03-08T03:56:08;3.90;99.90
19435;DHT22;9853;50.848;4.108;2024-03-08T03:58:10;3.90;99.90
19435;DHT22;9853;50.848;4.108;2024-03-08T04:00:11;3.90;99.90
19435;DHT22;9853;50.848;4.108;2024-03-08T04:02:15;3.80;99.90
19435;DHT22;9853;50.848;4.108;2024-03-08T04:04:16;3.80;99.90
19435;DHT22;9853;50.848;4.108;2024-03-08T04:06:18;3.80;99.90
19435;DHT22;9853;50.848;4.108;2024-03-08T04:08:19;3.70;99.90
19435;DHT22;9853;50.848;4.108;2024-03-08T04:10:20;3.80;99.90
19435;DHT22;9853;50.848;4.108;2024-03-08T04:12:21;3.90;99.90
19435;DHT22;9853;50.848;4.108;2024-03-08T04:14:23;3.90;99.90
19435;DHT22;9853;50.848;4.108;2024-03-08T04:16:24;3.80;99.90
19435;DHT22;9853;50.848;4.108;2024-03-08T04:18:26;3.80;99.90
19435;DHT22;9853;50.848;4.108;2024-03-08T04:20:27;3.80;99.90
19435;DHT22;9853;50.848;4.108;2024-03-08T04:22:28;3.70;99.90
19435;DHT22;9853;50.848;4.108;2024-03-08T04:24:30;3.60;99.90
19435;DHT22;9853;50.848;4.108;2024-03-08T04:26:31;3.60;99.90
19435;DHT22;9853;50.848;4.108;2024-03-08T04:28:35;3.50;99.90
19435;DHT22;9853;50.848;4.108;2024-03-08T04:30:39;3.60;99.90
19435;DHT22;9853;50.848;4.108;2024-03-08T04:32:42;3.60;99.90
19435;DHT22;9853;50.848;4.108;2024-03-08T04:34:43;3.50;99.90
19435;DHT22;9853;50.848;4.108;2024-03-08T04:36:45;3.60;99.90
19435;DHT22;9853;50.848;4.108;2024-03-08T04:38:51;3.60;99.90
19435;DHT22;9853;50.848;4.108;2024-03-08T04:40:55;3.50;99.90
19435;DHT22;9853;50.848;4.108;2024-03-08T04:42:56;3.50;99.90
19435;DHT22;9853;50.848;4.108;2024-03-08T04:44:59;3.70;99.90
19435;DHT22;9853;50.848;4.108;2024-03-08T04:47:01;3.60;99.90
19435;DHT22;9853;50.848;4.108;2024-03-08T04:49:02;3.60;99.90
19435;DHT22;9853;50.848;4.108;2024-03-08T04:51:04;3.50;99.90
19435;DHT22;9853;50.848;4.108;2024-03-08T04:53:07;3.50;99.90
19435;DHT22;9853;50.848;4.108;2024-03-08T04:55:08;3.50;99.90
19435;DHT22;9853;50.848;4.108;2024-03-08T04:57:10;3.60;99.90
19435;DHT22;9853;50.848;4.108;2024-03-08T04:59:11;3.60;99.90
19435;DHT22;9853;50.848;4.108;2024-03-08T05:01:12;3.50;99.90
19435;DHT22;9853;50.848;4.108;2024-03-08T05:03:13;3.50;99.90
19435;DHT22;9853;50.848;4.108;2024-03-08T05:05:15;3.60;99.90
19435;DHT22;9853;50.848;4.108;2024-03-08T05:07:19;3.50;99.90
19435;DHT22;9853;50.848;4.108;2024-03-08T05:09:20;3.60;99.90
19435;DHT22;9853;50.848;4.108;2024-03-08T05:11:21;3.70;99.90
19435;DHT22;9853;50.848;4.108;2024-03-08T05:13:23;3.80;99.90
19435;DHT22;9853;50.848;4.108;2024-03-08T05:15:23;3.70;99.90
19435;DHT22;9853;50.848;4.108;2024-03-08T05:17:24;3.60;99.90
19435;DHT22;9853;50.848;4.108;2024-03-08T05:19:25;3.60;99.90
19435;DHT22;9853;50.848;4.108;2024-03-08T05:21:26;3.60;99.90
19435;DHT22;9853;50.848;4.108;2024-03-08T05:23:27;3.70;99.90
19435;DHT22;9853;50.848;4.108;2024-03-08T05:25:28;3.60;99.90
19435;DHT22;9853;50.848;4.108;2024-03-08T05:27:29;3.50;99.90
19435;DHT22;9853;50.848;4.108;2024-03-08T05:29:30;3.60;99.90
19435;DHT22;9853;50.848;4.108;2024-03-08T05:31:42;3.50;99.90
19435;DHT22;9853;50.848;4.108;2024-03-08T05:33:45;3.40;99.90
19435;DHT22;9853;50.848;4.108;2024-03-08T05:35:46;3.30;99.90
19435;DHT22;9853;50.848;4.108;2024-03-08T05:37:47;3.20;99.90
19435;DHT22;9853;50.848;4.108;2024-03-08T05:39:48;3.20;99.90
19435;DHT22;9853;50.848;4.108;2024-03-08T05:41:49;3.20;99.90
19435;DHT22;9853;50.848;4.108;2024-03-08T05:43:51;3.30;99.90
19435;DHT22;9853;50.848;4.108;2024-03-08T05:45:52;3.20;99.90
19435;DHT22;9853;50.848;4.108;2024-03-08T05:47:55;3.30;99.90
19435;DHT22;9853;50.848;4.108;2024-03-08T05:49:56;3.30;99.90
19435;DHT22;9853;50.848;4.108;2024-03-08T05:51:57;3.30;99.90
19435;DHT22;9853;50.848;4.108;2024-03-08T05:53:58;3.30;99.90
19435;DHT22;9853;50.848;4.108;2024-03-08T05:55:59;3.30;99.90
19435;DHT22;9853;50.848;4.108;2024-03-08T05:58:05;3.30;99.90
19435;DHT22;9853;50.848;4.108;2024-03-08T06:00:10;3.40;99.90
19435;DHT22;9853;50.848;4.108;2024-03-08T06:02:16;3.40;99.90
19435;DHT22;9853;50.848;4.108;2024-03-08T06:04:19;3.30;99.90
19435;DHT22;9853;50.848;4.108;2024-03-08T06:06:20;3.30;99.90
19435;DHT22;9853;50.848;4.108;2024-03-08T06:08:22;3.30;99.90
19435;DHT22;9853;50.848;4.108;2024-03-08T06:10:27;3.20;99.90
19435;DHT22;9853;50.848;4.108;2024-03-08T06:12:28;3.50;99.90
19435;DHT22;9853;50.848;4.108;2024-03-08T06:15:11;3.50;99.90
19435;DHT22;9853;50.848;4.108;2024-03-08T06:17:22;3.40;99.90
19435;DHT22;9853;50.848;4.108;2024-03-08T06:19:28;3.40;99.90
19435;DHT22;9853;50.848;4.108;2024-03-08T06:21:47;3.30;99.90
19435;DHT22;9853;50.848;4.108;2024-03-08T06:23:57;3.40;99.90
19435;DHT22;9853;50.848;4.108;2024-03-08T06:25:58;3.60;99.90
19435;DHT22;9853;50.848;4.108;2024-03-08T06:28:03;3.40;99.90
19435;DHT22;9853;50.848;4.108;2024-03-08T06:30:15;3.30;99.90
19435;DHT22;9853;50.848;4.108;2024-03-08T06:32:17;3.40;99.90
19435;DHT22;9853;50.848;4.108;2024-03-08T06:34:29;3.40;99.90
19435;DHT22;9853;50.848;4.108;2024-03-08T06:36:55;3.50;99.90
19435;DHT22;9853;50.848;4.108;2024-03-08T06:39:05;3.50;99.90
19435;DHT22;9853;50.848;4.108;2024-03-08T06:41:36;3.60;99.90
19435;DHT22;9853;50.848;4.108;2024-03-08T06:43:38;3.60;99.90
19435;DHT22;9853;50.848;4.108;2024-03-08T06:46:02;3.50;99.90
19435;DHT22;9853;50.848;4.108;2024-03-08T06:48:20;3.70;99.90
19435;DHT22;9853;50.848;4.108;2024-03-08T06:50:24;3.90;99.90
19435;DHT22;9853;50.848;4.108;2024-03-08T06:52:50;3.90;99.90
19435;DHT22;9853;50.848;4.108;2024-03-08T06:55:03;4.20;99.90
19435;DHT22;9853;50.848;4.108;2024-03-08T06:57:08;4.40;99.90
19435;DHT22;9853;50.848;4.108;2024-03-08T06:59:11;4.60;99.90
19435;DHT22;9853;50.848;4.108;2024-03-08T07:01:21;4.70;99.90
19435;DHT22;9853;50.848;4.108;2024-03-08T07:03:25;4.80;99.90
19435;DHT22;9853;50.848;4.108;2024-03-08T07:05:31;4.90;99.90
19435;DHT22;9853;50.848;4.108;2024-03-08T07:07:53;5.20;99.90
19435;DHT22;9853;50.848;4.108;2024-03-08T07:10:16;5.30;99.90
19435;DHT22;9853;50.848;4.108;2024-03-08T07:12:17;5.20;99.90
19435;DHT22;9853;50.848;4.108;2024-03-08T07:14:24;5.40;99.90
19435;DHT22;9853;50.848;4.108;2024-03-08T07:16:31;5.40;99.90
19435;DHT22;9853;50.848;4.108;2024-03-08T07:18:33;5.60;99.90
19435;DHT22;9853;50.848;4.108;2024-03-08T07:20:41;5.50;99.90
19435;DHT22;9853;50.848;4.108;2024-03-08T07:22:49;5.60;99.90
19435;DHT22;9853;50.848;4.108;2024-03-08T07:25:07;5.60;99.90
19435;DHT22;9853;50.848;4.108;2024-03-08T07:27:31;5.80;99.90
19435;DHT22;9853;50.848;4.108;2024-03-08T07:29:34;5.90;99.90
19435;DHT22;9853;50.848;4.108;2024-03-08T07:32:01;5.90;99.90
19435;DHT22;9853;50.848;4.108;2024-03-08T07:34:26;6.30;99.90
19435;DHT22;9853;50.848;4.108;2024-03-08T07:36:33;6.30;99.90
19435;DHT22;9853;50.848;4.108;2024-03-08T07:38:56;6.40;99.90
19435;DHT22;9853;50.848;4.108;2024-03-08T07:41:05;6.30;99.90
19435;DHT22;9853;50.848;4.108;2024-03-08T07:43:13;6.30;99.90
19435;DHT22;9853;50.848;4.108;2024-03-08T07:45:17;6.10;99.90
19435;DHT22;9853;50.848;4.108;2024-03-08T07:47:26;6.30;99.90
19435;DHT22;9853;50.848;4.108;2024-03-08T07:49:50;6.50;99.90
19435;DHT22;9853;50.848;4.108;2024-03-08T07:51:55;6.40;99.90
19435;DHT22;9853;50.848;4.108;2024-03-08T07:54:00;6.30;99.90
19435;DHT22;9853;50.848;4.108;2024-03-08T07:56:04;6.30;99.90
19435;DHT22;9853;50.848;4.108;2024-03-08T07:58:07;6.50;99.90
19435;DHT22;9853;50.848;4.108;2024-03-08T08:00:11;6.80;99.90
19435;DHT22;9853;50.848;4.108;2024-03-08T08:02:25;7.00;99.90
19435;DHT22;9853;50.848;4.108;2024-03-08T08:04:48;7.10;99.90
19435;DHT22;9853;50.848;4.108;2024-03-08T08:07:22;7.30;99.90
19435;DHT22;9853;50.848;4.108;2024-03-08T08:09:30;7.10;99.90
19435;DHT22;9853;50.848;4.108;2024-03-08T08:11:40;6.90;99.90
19435;DHT22;9853;50.848;4.108;2024-03-08T08:13:47;7.10;99.90
19435;DHT22;9853;50.848;4.108;2024-03-08T08:15:59;6.90;99.90
19435;DHT22;9853;50.848;4.108;2024-03-08T08:18:07;7.30;99.90
19435;DHT22;9853;50.848;4.108;2024-03-08T08:20:11;7.50;99.90
19435;DHT22;9853;50.848;4.108;2024-03-08T08:22:25;7.30;99.90
19435;DHT22;9853;50.848;4.108;2024-03-08T08:24:50;7.40;99.90
19435;DHT22;9853;50.848;4.108;2024-03-08T08:27:35;7.60;99.90
19435;DHT22;9853;50.848;4.108;2024-03-08T08:29:48;7.70;99.90
19435;DHT22;9853;50.848;4.108;2024-03-08T08:31:52;7.60;99.90
19435;DHT22;9853;50.848;4.108;2024-03-08T08:33:58;7.70;99.90
19435;DHT22;9853;50.848;4.108;2024-03-08T08:36:20;7.70;99.90
19435;DHT22;9853;50.848;4.108;2024-03-08T08:38:30;7.80;99.90
19435;DHT22;9853;50.848;4.108;2024-03-08T08:40:39;8.20;99.90
19435;DHT22;9853;50.848;4.108;2024-03-08T08:42:43;8.40;99.90
19435;DHT22;9853;50.848;4.108;2024-03-08T08:44:55;8.60;99.90
19435;DHT22;9853;50.848;4.108;2024-03-08T08:47:08;8.50;99.90
19435;DHT22;9853;50.848;4.108;2024-03-08T08:49:12;8.30;99.90
19435;DHT22;9853;50.848;4.108;2024-03-08T08:51:21;8.10;99.90
19435;DHT22;9853;50.848;4.108;2024-03-08T08:53:30;8.30;99.90
19435;DHT22;9853;50.848;4.108;2024-03-08T08:55:45;8.40;99.90
19435;DHT22;9853;50.848;4.108;2024-03-08T08:57:58;8.10;99.90
19435;DHT22;9853;50.848;4.108;2024-03-08T09:00:11;8.30;99.90
19435;DHT22;9853;50.848;4.108;2024-03-08T09:02:23;8.60;99.90
19435;DHT22;9853;50.848;4.108;2024-03-08T09:05:11;8.50;99.90
19435;DHT22;9853;50.848;4.108;2024-03-08T09:07:18;8.60;99.90
19435;DHT22;9853;50.848;4.108;2024-03-08T09:09:39;8.80;99.90
19435;DHT22;9853;50.848;4.108;2024-03-08T09:11:43;8.80;99.90
19435;DHT22;9853;50.848;4.108;2024-03-08T09:13:50;8.80;99.90
19435;DHT22;9853;50.848;4.108;2024-03-08T09:15:54;8.90;99.90
19435;DHT22;9853;50.848;4.108;2024-03-08T09:17:57;8.70;99.90
19435;DHT22;9853;50.848;4.108;2024-03-08T09:20:08;8.60;99.90
19435;DHT22;9853;50.848;4.108;2024-03-08T09:22:26;8.90;99.90
19435;DHT22;9853;50.848;4.108;2024-03-08T09:24:39;9.30;99.90
19435;DHT22;9853;50.848;4.108;2024-03-08T09:26:49;9.20;99.90
19435;DHT22;9853;50.848;4.108;2024-03-08T09:29:00;8.90;99.90
19435;DHT22;9853;50.848;4.108;2024-03-08T09:31:16;8.60;99.90
19435;DHT22;9853;50.848;4.108;2024-03-08T09:33:21;8.40;99.90
19435;DHT22;9853;50.848;4.108;2024-03-08T09:35:26;8.40;99.90
19435;DHT22;9853;50.848;4.108;2024-03-08T09:37:39;8.70;99.90
19435;DHT22;9853;50.848;4.108;2024-03-08T09:40:08;8.90;99.90
19435;DHT22;9853;50.848;4.108;2024-03-08T09:42:16;9.00;99.90
19435;DHT22;9853;50.848;4.108;2024-03-08T09:44:29;9.10;99.90
19435;DHT22;9853;50.848;4.108;2024-03-08T09:46:57;9.30;99.90
19435;DHT22;9853;50.848;4.108;2024-03-08T09:49:13;9.30;99.90
19435;DHT22;9853;50.848;4.108;2024-03-08T09:51:31;9.30;99.90
19435;DHT22;9853;50.848;4.108;2024-03-08T09:54:03;9.30;99.90
19435;DHT22;9853;50.848;4.108;2024-03-08T09:58:25;8.90;99.90
19435;DHT22;9853;50.848;4.108;2024-03-08T10:00:45;9.20;99.90
19435;DHT22;9853;50.848;4.108;2024-03-08T10:03:10;9.30;99.90
19435;DHT22;9853;50.848;4.108;2024-03-08T10:05:15;9.00;99.90
19435;DHT22;9853;50.848;4.108;2024-03-08T10:07:37;8.70;99.90
19435;DHT22;9853;50.848;4.108;2024-03-08T10:09:46;8.60;99.90
19435;DHT22;9853;50.848;4.108;2024-03-08T10:11:55;8.30;99.90
19435;DHT22;9853;50.848;4.108;2024-03-08T10:14:01;8.40;99.90
19435;DHT22;9853;50.848;4.108;2024-03-08T10:16:04;8.50;99.90
19435;DHT22;9853;50.848;4.108;2024-03-08T10:18:11;8.50;99.90
19435;DHT22;9853;50.848;4.108;2024-03-08T10:20:23;8.50;99.90
19435;DHT22;9853;50.848;4.108;2024-03-08T10:22:33;8.60;99.90
19435;DHT22;9853;50.848;4.108;2024-03-08T10:24:34;8.50;99.90
19435;DHT22;9853;50.848;4.108;2024-03-08T10:26:37;8.40;99.90
19435;DHT22;9853;50.848;4.108;2024-03-08T10:28:54;8.50;99.90
19435;DHT22;9853;50.848;4.108;2024-03-08T10:31:17;8.80;99.90
19435;DHT22;9853;50.848;4.108;2024-03-08T10:33:20;8.70;99.90
19435;DHT22;9853;50.848;4.108;2024-03-08T10:35:21;8.80;99.90
19435;DHT22;9853;50.848;4.108;2024-03-08T10:37:26;9.00;99.90
19435;DHT22;9853;50.848;4.108;2024-03-08T10:40:02;9.10;99.90
19435;DHT22;9853;50.848;4.108;2024-03-08T10:42:28;9.20;99.90
19435;DHT22;9853;50.848;4.108;2024-03-08T10:49:22;8.70;99.90
19435;DHT22;9853;50.848;4.108;2024-03-08T10:52:05;9.00;99.90
19435;DHT22;9853;50.848;4.108;2024-03-08T10:54:22;9.10;99.90
19435;DHT22;9853;50.848;4.108;2024-03-08T10:56:29;9.20;99.90
19435;DHT22;9853;50.848;4.108;2024-03-08T10:58:30;9.50;99.90
19435;DHT22;9853;50.848;4.108;2024-03-08T11:00:40;9.30;99.90
19435;DHT22;9853;50.848;4.108;2024-03-08T11:02:45;9.20;99.90
19435;DHT22;9853;50.848;4.108;2024-03-08T11:04:48;9.30;99.90
19435;DHT22;9853;50.848;4.108;2024-03-08T11:07:04;9.60;99.90
19435;DHT22;9853;50.848;4.108;2024-03-08T11:09:30;9.80;99.90
19435;DHT22;9853;50.848;4.108;2024-03-08T11:11:42;9.70;99.90
19435;DHT22;9853;50.848;4.108;2024-03-08T11:13:44;9.80;99.90
19435;DHT22;9853;50.848;4.108;2024-03-08T11:15:51;9.60;99.90
19435;DHT22;9853;50.848;4.108;2024-03-08T11:17:52;9.50;99.90
19435;DHT22;9853;50.848;4.108;2024-03-08T11:19:56;9.70;99.90
19435;DHT22;9853;50.848;4.108;2024-03-08T11:22:01;9.90;99.90
19435;DHT22;9853;50.848;4.108;2024-03-08T11:24:12;10.00;99.90
19435;DHT22;9853;50.848;4.108;2024-03-08T11:26:24;9.80;99.90
19435;DHT22;9853;50.848;4.108;2024-03-08T11:28:27;9.80;99.90
19435;DHT22;9853;50.848;4.108;2024-03-08T11:30:32;9.60;99.90
19435;DHT22;9853;50.848;4.108;2024-03-08T11:32:33;9.60;99.90
19435;DHT22;9853;50.848;4.108;2024-03-08T11:34:36;9.90;99.90
19435;DHT22;9853;50.848;4.108;2024-03-08T11:36:42;10.00;99.90
19435;DHT22;9853;50.848;4.108;2024-03-08T11:38:46;10.20;99.90
19435;DHT22;9853;50.848;4.108;2024-03-08T11:40:50;10.30;99.90
19435;DHT22;9853;50.848;4.108;2024-03-08T11:42:52;10.40;99.90
19435;DHT22;9853;50.848;4.108;2024-03-08T11:44:53;10.60;99.90
19435;DHT22;9853;50.848;4.108;2024-03-08T11:46:55;10.50;99.90
19435;DHT22;9853;50.848;4.108;2024-03-08T11:48:57;10.50;99.90
19435;DHT22;9853;50.848;4.108;2024-03-08T11:51:00;10.50;99.90
19435;DHT22;9853;50.848;4.108;2024-03-08T11:53:04;10.60;99.90
19435;DHT22;9853;50.848;4.108;2024-03-08T11:55:06;10.50;99.90
19435;DHT22;9853;50.848;4.108;2024-03-08T11:57:07;10.40;99.90
19435;DHT22;9853;50.848;4.108;2024-03-08T11:59:16;10.40;99.90
19435;DHT22;9853;50.848;4.108;2024-03-08T12:01:18;10.30;99.90
19435;DHT22;9853;50.848;4.108;2024-03-08T12:03:19;10.60;99.90
19435;DHT22;9853;50.848;4.108;2024-03-08T12:05:21;10.70;99.90
19435;DHT22;9853;50.848;4.108;2024-03-08T12:07:23;10.70;99.90
19435;DHT22;9853;50.848;4.108;2024-03-08T12:09:24;10.70;99.90
19435;DHT22;9853;50.848;4.108;2024-03-08T12:11:25;10.60;99.90
19435;DHT22;9853;50.848;4.108;2024-03-08T12:13:31;10.60;99.90
19435;DHT22;9853;50.848;4.108;2024-03-08T12:15:33;10.80;99.90
19435;DHT22;9853;50.848;4.108;2024-03-08T12:17:34;10.90;99.90
19435;DHT22;9853;50.848;4.108;2024-03-08T12:19:38;10.90;99.90
19435;DHT22;9853;50.848;4.108;2024-03-08T12:21:42;10.90;99.90
19435;DHT22;9853;50.848;4.108;2024-03-08T12:24:08;11.00;99.90
19435;DHT22;9853;50.848;4.108;2024-03-08T12:26:17;11.00;99.90
19435;DHT22;9853;50.848;4.108;2024-03-08T12:28:19;11.00;99.90
19435;DHT22;9853;50.848;4.108;2024-03-08T12:30:21;11.10;99.90
19435;DHT22;9853;50.848;4.108;2024-03-08T12:32:22;11.20;99.90
19435;DHT22;9853;50.848;4.108;2024-03-08T12:34:24;11.10;99.90
19435;DHT22;9853;50.848;4.108;2024-03-08T12:36:25;11.10;99.90
19435;DHT22;9853;50.848;4.108;2024-03-08T12:38:29;11.10;99.90
19435;DHT22;9853;50.848;4.108;2024-03-08T12:40:32;11.30;99.90
19435;DHT22;9853;50.848;4.108;2024-03-08T12:42:35;11.50;99.90
19435;DHT22;9853;50.848;4.108;2024-03-08T12:44:36;11.70;99.90
19435;DHT22;9853;50.848;4.108;2024-03-08T12:46:44;11.80;99.90
19435;DHT22;9853;50.848;4.108;2024-03-08T12:48:49;11.50;99.90
19435;DHT22;9853;50.848;4.108;2024-03-08T12:50:50;11.40;99.90
19435;DHT22;9853;50.848;4.108;2024-03-08T12:52:52;11.30;99.90
19435;DHT22;9853;50.848;4.108;2024-03-08T12:54:53;11.20;99.90
19435;DHT22;9853;50.848;4.108;2024-03-08T12:56:55;11.30;99.90
19435;DHT22;9853;50.848;4.108;2024-03-08T12:58:56;11.40;99.90
19435;DHT22;9853;50.848;4.108;2024-03-08T13:00:57;11.40;99.90
19435;DHT22;9853;50.848;4.108;2024-03-08T13:03:00;11.70;99.90
19435;DHT22;9853;50.848;4.108;2024-03-08T13:05:01;11.80;99.90
19435;DHT22;9853;50.848;4.108;2024-03-08T13:07:05;11.90;99.90
19435;DHT22;9853;50.848;4.108;2024-03-08T13:09:06;11.90;99.90
19435;DHT22;9853;50.848;4.108;2024-03-08T13:11:07;11.70;99.90
19435;DHT22;9853;50.848;4.108;2024-03-08T13:13:12;11.70;99.90
19435;DHT22;9853;50.848;4.108;2024-03-08T13:15:15;11.80;99.90
19435;DHT22;9853;50.848;4.108;2024-03-08T13:17:20;12.00;99.90
19435;DHT22;9853;50.848;4.108;2024-03-08T13:19:21;12.20;99.90
19435;DHT22;9853;50.848;4.108;2024-03-08T13:21:22;12.10;99.90
19435;DHT22;9853;50.848;4.108;2024-03-08T13:23:26;12.00;99.90
19435;DHT22;9853;50.848;4.108;2024-03-08T13:25:27;11.90;99.90
19435;DHT22;9853;50.848;4.108;2024-03-08T13:27:29;12.10;99.90
19435;DHT22;9853;50.848;4.108;2024-03-08T13:29:30;12.20;99.90
19435;DHT22;9853;50.848;4.108;2024-03-08T13:31:33;12.20;99.90
19435;DHT22;9853;50.848;4.108;2024-03-08T13:33:34;12.20;99.90
19435;DHT22;9853;50.848;4.108;2024-03-08T13:35:39;12.20;99.90
19435;DHT22;9853;50.848;4.108;2024-03-08T13:37:43;12.30;99.90
19435;DHT22;9853;50.848;4.108;2024-03-08T13:39:45;12.30;99.90
19435;DHT22;9853;50.848;4.108;2024-03-08T13:41:46;12.20;99.90
19435;DHT22;9853;50.848;4.108;2024-03-08T13:43:47;12.40;99.90
19435;DHT22;9853;50.848;4.108;2024-03-08T13:45:51;12.60;99.90